sensor_id;sensor_type;location;lat;lon;timestamp;pressure;altitude;pressure_sealevel;temperature
71428;BMP280;59246;59.102;37.928;2022-07-09T00:00:22;100154.06;;;19.30
71428;BMP280;59246;59.102;37.928;2022-07-09T00:02:47;100154.84;;;19.30
71428;BMP280;59246;59.102;37.928;2022-07-09T00:05:13;100163.59;;;19.27
71428;BMP280;59246;59.102;37.928;2022-07-09T00:07:40;100162.06;;;19.26
71428;BMP280;59246;59.102;37.928;2022-07-09T00:10:06;100158.09;;;19.23
71428;BMP280;59246;59.102;37.928;2022-07-09T00:12:32;100161.16;;;19.22
71428;BMP280;59246;59.102;37.928;2022-07-09T00:14:57;100164.59;;;19.22
71428;BMP280;59246;59.102;37.928;2022-07-09T00:17:23;100154.16;;;19.21
71428;BMP280;59246;59.102;37.928;2022-07-09T00:19:51;100154.16;;;19.21
71428;BMP280;59246;59.102;37.928;2022-07-09T00:22:17;100159.22;;;19.22
71428;BMP280;59246;59.102;37.928;2022-07-09T00:24:43;100154.16;;;19.21
71428;BMP280;59246;59.102;37.928;2022-07-09T00:27:09;100162.25;;;19.21
71428;BMP280;59246;59.102;37.928;2022-07-09T00:29:34;100150.72;;;19.20
71428;BMP280;59246;59.102;37.928;2022-07-09T00:32:00;100147.22;;;19.20
71428;BMP280;59246;59.102;37.928;2022-07-09T00:34:26;100151.03;;;19.19
71428;BMP280;59246;59.102;37.928;2022-07-09T00:36:51;100154.84;;;19.18
71428;BMP280;59246;59.102;37.928;2022-07-09T00:39:17;100152.94;;;19.18
71428;BMP280;59246;59.102;37.928;2022-07-09T00:41:43;100155.19;;;19.16
71428;BMP280;59246;59.102;37.928;2022-07-09T00:44:08;100151.25;;;19.14
71428;BMP280;59246;59.102;37.928;2022-07-09T00:46:34;100161.56;;;19.12
71428;BMP280;59246;59.102;37.928;2022-07-09T00:49:00;100157.28;;;19.11
71428;BMP280;59246;59.102;37.928;2022-07-09T00:51:32;100141.03;;;19.07
71428;BMP280;59246;59.102;37.928;2022-07-09T00:53:59;100139.81;;;19.04
71428;BMP280;59246;59.102;37.928;2022-07-09T00:56:27;100148.19;;;19.03
71428;BMP280;59246;59.102;37.928;2022-07-09T00:58:53;100146.94;;;19.00
71428;BMP280;59246;59.102;37.928;2022-07-09T01:01:19;100145.72;;;18.98
71428;BMP280;59246;59.102;37.928;2022-07-09T01:03:45;100141.78;;;18.95
71428;BMP280;59246;59.102;37.928;2022-07-09T01:06:11;100139.75;;;18.92
71428;BMP280;59246;59.102;37.928;2022-07-09T01:08:37;100139.31;;;18.90
71428;BMP280;59246;59.102;37.928;2022-07-09T01:11:03;100148.50;;;18.89
71428;BMP280;59246;59.102;37.928;2022-07-09T01:13:29;100143.13;;;18.89
71428;BMP280;59246;59.102;37.928;2022-07-09T01:15:54;100150.72;;;18.87
71428;BMP280;59246;59.102;37.928;2022-07-09T01:18:20;100157.56;;;18.84
71428;BMP280;59246;59.102;37.928;2022-07-09T01:20:46;100145.91;;;18.80
71428;BMP280;59246;59.102;37.928;2022-07-09T01:23:12;100148.13;;;18.78
71428;BMP280;59246;59.102;37.928;2022-07-09T01:25:39;100143.53;;;18.79
71428;BMP280;59246;59.102;37.928;2022-07-09T01:28:07;100144.63;;;18.78
71428;BMP280;59246;59.102;37.928;2022-07-09T01:30:34;100150.50;;;18.80
71428;BMP280;59246;59.102;37.928;2022-07-09T01:33:00;100149.38;;;18.81
71428;BMP280;59246;59.102;37.928;2022-07-09T01:35:27;100141.31;;;18.81
71428;BMP280;59246;59.102;37.928;2022-07-09T01:37:52;100150.81;;;18.78
71428;BMP280;59246;59.102;37.928;2022-07-09T01:40:19;100148.78;;;18.75
71428;BMP280;59246;59.102;37.928;2022-07-09T01:42:46;100148.00;;;18.75
71428;BMP280;59246;59.102;37.928;2022-07-09T01:45:12;100147.53;;;18.73
71428;BMP280;59246;59.102;37.928;2022-07-09T01:47:37;100145.53;;;18.70
71428;BMP280;59246;59.102;37.928;2022-07-09T01:50:04;100138.44;;;18.65
71428;BMP280;59246;59.102;37.928;2022-07-09T01:52:29;100146.19;;;18.67
71428;BMP280;59246;59.102;37.928;2022-07-09T01:54:55;100153.78;;;18.64
71428;BMP280;59246;59.102;37.928;2022-07-09T01:57:21;100145.38;;;18.66
71428;BMP280;59246;59.102;37.928;2022-07-09T01:59:47;100137.13;;;18.71
71428;BMP280;59246;59.102;37.928;2022-07-09T02:02:12;100141.94;;;18.78
71428;BMP280;59246;59.102;37.928;2022-07-09T02:04:38;100138.75;;;18.84
71428;BMP280;59246;59.102;37.928;2022-07-09T02:07:04;100129.38;;;18.91
71428;BMP280;59246;59.102;37.928;2022-07-09T02:09:30;100128.00;;;18.97
71428;BMP280;59246;59.102;37.928;2022-07-09T02:11:55;100133.97;;;19.02
71428;BMP280;59246;59.102;37.928;2022-07-09T02:14:21;100128.81;;;19.10
71428;BMP280;59246;59.102;37.928;2022-07-09T02:16:47;100133.97;;;19.15
71428;BMP280;59246;59.102;37.928;2022-07-09T02:19:14;100127.94;;;19.18
71428;BMP280;59246;59.102;37.928;2022-07-09T02:21:39;100131.06;;;19.20
71428;BMP280;59246;59.102;37.928;2022-07-09T02:24:06;100131.19;;;19.23
71428;BMP280;59246;59.102;37.928;2022-07-09T02:26:31;100123.91;;;19.24
71428;BMP280;59246;59.102;37.928;2022-07-09T02:28:58;100130.19;;;19.28
71428;BMP280;59246;59.102;37.928;2022-07-09T02:31:24;100126.41;;;19.29
71428;BMP280;59246;59.102;37.928;2022-07-09T02:33:50;100132.22;;;19.31
71428;BMP280;59246;59.102;37.928;2022-07-09T02:36:16;100128.06;;;19.34
71428;BMP280;59246;59.102;37.928;2022-07-09T02:38:41;100137.03;;;19.38
71428;BMP280;59246;59.102;37.928;2022-07-09T02:41:07;100136.25;;;19.37
71428;BMP280;59246;59.102;37.928;2022-07-09T02:43:33;100137.16;;;19.41
71428;BMP280;59246;59.102;37.928;2022-07-09T02:45:58;100138.09;;;19.45
71428;BMP280;59246;59.102;37.928;2022-07-09T02:48:24;100131.44;;;19.55
71428;BMP280;59246;59.102;37.928;2022-07-09T02:50:53;100134.38;;;19.62
71428;BMP280;59246;59.102;37.928;2022-07-09T02:53:21;100132.25;;;19.68
71428;BMP280;59246;59.102;37.928;2022-07-09T02:55:47;100140.19;;;19.77
71428;BMP280;59246;59.102;37.928;2022-07-09T02:58:12;100141.19;;;19.84
71428;BMP280;59246;59.102;37.928;2022-07-09T03:00:39;100133.69;;;19.90
71428;BMP280;59246;59.102;37.928;2022-07-09T03:03:06;100125.34;;;19.95
71428;BMP280;59246;59.102;37.928;2022-07-09T03:05:31;100136.66;;;20.01
71428;BMP280;59246;59.102;37.928;2022-07-09T03:07:57;100129.38;;;20.01
71428;BMP280;59246;59.102;37.928;2022-07-09T03:10:23;100142.28;;;20.08
71428;BMP280;59246;59.102;37.928;2022-07-09T03:12:50;100133.59;;;20.15
71428;BMP280;59246;59.102;37.928;2022-07-09T03:15:16;100136.50;;;20.22
71428;BMP280;59246;59.102;37.928;2022-07-09T03:17:45;100131.75;;;20.31
71428;BMP280;59246;59.102;37.928;2022-07-09T03:20:11;100128.81;;;20.36
71428;BMP280;59246;59.102;37.928;2022-07-09T03:22:37;100134.84;;;20.45
71428;BMP280;59246;59.102;37.928;2022-07-09T03:25:03;100128.50;;;20.53
71428;BMP280;59246;59.102;37.928;2022-07-09T03:27:29;100141.06;;;20.62
71428;BMP280;59246;59.102;37.928;2022-07-09T03:29:55;100144.31;;;20.67
71428;BMP280;59246;59.102;37.928;2022-07-09T03:32:21;100139.09;;;20.75
71428;BMP280;59246;59.102;37.928;2022-07-09T03:34:47;100135.09;;;20.84
71428;BMP280;59246;59.102;37.928;2022-07-09T03:37:13;100136.06;;;20.92
71428;BMP280;59246;59.102;37.928;2022-07-09T03:39:39;100142.41;;;21.00
71428;BMP280;59246;59.102;37.928;2022-07-09T03:42:05;100142.63;;;21.07
71428;BMP280;59246;59.102;37.928;2022-07-09T03:44:33;100137.31;;;21.10
71428;BMP280;59246;59.102;37.928;2022-07-09T03:47:00;100150.66;;;21.19
71428;BMP280;59246;59.102;37.928;2022-07-09T03:49:26;100148.44;;;21.25
71428;BMP280;59246;59.102;37.928;2022-07-09T03:51:52;100143.66;;;21.34
71428;BMP280;59246;59.102;37.928;2022-07-09T03:54:18;100155.41;;;21.42
71428;BMP280;59246;59.102;37.928;2022-07-09T03:56:44;100146.25;;;21.46
71428;BMP280;59246;59.102;37.928;2022-07-09T03:59:09;100145.22;;;21.51
71428;BMP280;59246;59.102;37.928;2022-07-09T04:01:35;100148.78;;;21.55
71428;BMP280;59246;59.102;37.928;2022-07-09T04:04:01;100141.53;;;21.59
71428;BMP280;59246;59.102;37.928;2022-07-09T04:06:27;100145.63;;;21.69
71428;BMP280;59246;59.102;37.928;2022-07-09T04:08:52;100146.31;;;21.85
71428;BMP280;59246;59.102;37.928;2022-07-09T04:11:18;100146.91;;;21.94
71428;BMP280;59246;59.102;37.928;2022-07-09T04:13:44;100148.34;;;22.08
71428;BMP280;59246;59.102;37.928;2022-07-09T04:16:09;100141.69;;;22.21
71428;BMP280;59246;59.102;37.928;2022-07-09T04:18:35;100137.13;;;22.25
71428;BMP280;59246;59.102;37.928;2022-07-09T04:21:01;100141.38;;;22.26
71428;BMP280;59246;59.102;37.928;2022-07-09T04:23:27;100146.91;;;22.33
71428;BMP280;59246;59.102;37.928;2022-07-09T04:25:53;100144.38;;;22.40
71428;BMP280;59246;59.102;37.928;2022-07-09T04:28:19;100141.75;;;22.44
71428;BMP280;59246;59.102;37.928;2022-07-09T04:30:46;100136.56;;;22.58
71428;BMP280;59246;59.102;37.928;2022-07-09T04:33:11;100151.78;;;22.90
71428;BMP280;59246;59.102;37.928;2022-07-09T04:35:37;100143.06;;;23.00
71428;BMP280;59246;59.102;37.928;2022-07-09T04:38:03;100138.00;;;22.95
71428;BMP280;59246;59.102;37.928;2022-07-09T04:40:29;100134.09;;;22.96
71428;BMP280;59246;59.102;37.928;2022-07-09T04:42:55;100146.47;;;22.93
71428;BMP280;59246;59.102;37.928;2022-07-09T04:45:20;100147.19;;;22.90
71428;BMP280;59246;59.102;37.928;2022-07-09T04:47:46;100143.28;;;22.88
71428;BMP280;59246;59.102;37.928;2022-07-09T04:50:12;100147.19;;;22.90
71428;BMP280;59246;59.102;37.928;2022-07-09T04:52:38;100144.84;;;22.89
71428;BMP280;59246;59.102;37.928;2022-07-09T04:55:05;100141.78;;;22.90
71428;BMP280;59246;59.102;37.928;2022-07-09T04:57:30;100146.25;;;22.82
71428;BMP280;59246;59.102;37.928;2022-07-09T05:00:00;100145.13;;;22.83
71428;BMP280;59246;59.102;37.928;2022-07-09T05:02:26;100143.50;;;22.79
71428;BMP280;59246;59.102;37.928;2022-07-09T05:04:51;100147.84;;;22.83
71428;BMP280;59246;59.102;37.928;2022-07-09T05:07:17;100144.84;;;22.89
71428;BMP280;59246;59.102;37.928;2022-07-09T05:09:43;100146.50;;;22.97
71428;BMP280;59246;59.102;37.928;2022-07-09T05:12:08;100140.81;;;23.02
71428;BMP280;59246;59.102;37.928;2022-07-09T05:14:37;100141.75;;;23.13
71428;BMP280;59246;59.102;37.928;2022-07-09T05:17:04;100133.63;;;23.13
71428;BMP280;59246;59.102;37.928;2022-07-09T05:19:30;100137.06;;;23.10
71428;BMP280;59246;59.102;37.928;2022-07-09T05:21:56;100131.25;;;23.12
71428;BMP280;59246;59.102;37.928;2022-07-09T05:24:22;100139.09;;;23.17
71428;BMP280;59246;59.102;37.928;2022-07-09T05:26:48;100130.31;;;23.27
71428;BMP280;59246;59.102;37.928;2022-07-09T05:29:14;100134.72;;;23.35
71428;BMP280;59246;59.102;37.928;2022-07-09T05:31:40;100130.19;;;23.43
71428;BMP280;59246;59.102;37.928;2022-07-09T05:34:06;100130.63;;;23.48
71428;BMP280;59246;59.102;37.928;2022-07-09T05:36:34;100123.78;;;23.55
71428;BMP280;59246;59.102;37.928;2022-07-09T05:38:59;100123.38;;;23.56
71428;BMP280;59246;59.102;37.928;2022-07-09T05:41:26;100121.84;;;23.55
71428;BMP280;59246;59.102;37.928;2022-07-09T05:43:53;100121.41;;;23.53
71428;BMP280;59246;59.102;37.928;2022-07-09T05:46:19;100123.50;;;23.63
71428;BMP280;59246;59.102;37.928;2022-07-09T05:48:44;100124.31;;;23.67
71428;BMP280;59246;59.102;37.928;2022-07-09T05:51:11;100123.16;;;23.68
71428;BMP280;59246;59.102;37.928;2022-07-09T05:53:36;100123.56;;;23.67
71428;BMP280;59246;59.102;37.928;2022-07-09T05:56:02;100117.34;;;23.66
71428;BMP280;59246;59.102;37.928;2022-07-09T05:58:28;100122.03;;;23.69
71428;BMP280;59246;59.102;37.928;2022-07-09T06:00:54;100116.63;;;23.69
71428;BMP280;59246;59.102;37.928;2022-07-09T06:03:19;100116.97;;;23.68
71428;BMP280;59246;59.102;37.928;2022-07-09T06:05:45;100110.06;;;23.70
71428;BMP280;59246;59.102;37.928;2022-07-09T06:08:11;100114.25;;;23.68
71428;BMP280;59246;59.102;37.928;2022-07-09T06:10:37;100118.94;;;23.71
71428;BMP280;59246;59.102;37.928;2022-07-09T06:13:03;100116.72;;;23.77
71428;BMP280;59246;59.102;37.928;2022-07-09T06:15:28;100121.47;;;23.87
71428;BMP280;59246;59.102;37.928;2022-07-09T06:17:54;100118.00;;;23.90
71428;BMP280;59246;59.102;37.928;2022-07-09T06:20:20;100106.34;;;23.86
71428;BMP280;59246;59.102;37.928;2022-07-09T06:22:46;100112.94;;;23.85
71428;BMP280;59246;59.102;37.928;2022-07-09T06:25:12;100113.38;;;23.90
71428;BMP280;59246;59.102;37.928;2022-07-09T06:27:38;100109.88;;;23.90
71428;BMP280;59246;59.102;37.928;2022-07-09T06:30:06;100109.16;;;23.93
71428;BMP280;59246;59.102;37.928;2022-07-09T06:32:32;100111.97;;;24.00
71428;BMP280;59246;59.102;37.928;2022-07-09T06:34:57;100115.03;;;23.99
71428;BMP280;59246;59.102;37.928;2022-07-09T06:37:23;100111.56;;;24.02
71428;BMP280;59246;59.102;37.928;2022-07-09T06:39:49;100110.84;;;24.08
71428;BMP280;59246;59.102;37.928;2022-07-09T06:42:18;100102.72;;;24.08
71428;BMP280;59246;59.102;37.928;2022-07-09T06:44:44;100107.28;;;24.01
71428;BMP280;59246;59.102;37.928;2022-07-09T06:47:10;100108.88;;;24.05
71428;BMP280;59246;59.102;37.928;2022-07-09T06:49:36;100118.97;;;24.05
71428;BMP280;59246;59.102;37.928;2022-07-09T06:52:02;100111.22;;;24.03
71428;BMP280;59246;59.102;37.928;2022-07-09T06:54:29;100108.00;;;23.94
71428;BMP280;59246;59.102;37.928;2022-07-09T06:56:54;100107.59;;;23.92
71428;BMP280;59246;59.102;37.928;2022-07-09T06:59:22;100107.19;;;23.93
71428;BMP280;59246;59.102;37.928;2022-07-09T07:01:48;100106.78;;;23.88
71428;BMP280;59246;59.102;37.928;2022-07-09T07:04:14;100108.25;;;23.82
71428;BMP280;59246;59.102;37.928;2022-07-09T07:06:41;100101.31;;;23.84
71428;BMP280;59246;59.102;37.928;2022-07-09T07:09:09;100108.31;;;23.85
71428;BMP280;59246;59.102;37.928;2022-07-09T07:11:35;100107.13;;;23.86
71428;BMP280;59246;59.102;37.928;2022-07-09T07:14:00;100105.16;;;23.83
71428;BMP280;59246;59.102;37.928;2022-07-09T07:16:26;100099.03;;;23.90
71428;BMP280;59246;59.102;37.928;2022-07-09T07:18:52;100099.88;;;23.94
71428;BMP280;59246;59.102;37.928;2022-07-09T07:21:18;100101.19;;;24.07
71428;BMP280;59246;59.102;37.928;2022-07-09T07:23:44;100091.94;;;24.15
71428;BMP280;59246;59.102;37.928;2022-07-09T07:26:10;100087.44;;;24.27
71428;BMP280;59246;59.102;37.928;2022-07-09T07:28:35;100078.63;;;24.41
71428;BMP280;59246;59.102;37.928;2022-07-09T07:31:01;100077.19;;;24.50
71428;BMP280;59246;59.102;37.928;2022-07-09T07:33:27;100075.69;;;24.60
71428;BMP280;59246;59.102;37.928;2022-07-09T07:35:53;100075.03;;;24.74
71428;BMP280;59246;59.102;37.928;2022-07-09T07:38:19;100059.47;;;24.64
71428;BMP280;59246;59.102;37.928;2022-07-09T07:40:44;100058.66;;;24.60
71428;BMP280;59246;59.102;37.928;2022-07-09T07:43:11;100053.69;;;24.72
71428;BMP280;59246;59.102;37.928;2022-07-09T07:45:36;100059.25;;;24.90
71428;BMP280;59246;59.102;37.928;2022-07-09T07:48:03;100062.09;;;25.12
71428;BMP280;59246;59.102;37.928;2022-07-09T07:50:29;100057.53;;;25.37
71428;BMP280;59246;59.102;37.928;2022-07-09T07:52:55;100072.38;;;25.54
71428;BMP280;59246;59.102;37.928;2022-07-09T07:55:22;100066.19;;;25.68
71428;BMP280;59246;59.102;37.928;2022-07-09T07:57:48;100070.13;;;25.81
71428;BMP280;59246;59.102;37.928;2022-07-09T08:00:14;100065.50;;;25.96
71428;BMP280;59246;59.102;37.928;2022-07-09T08:02:39;100070.16;;;26.10
71428;BMP280;59246;59.102;37.928;2022-07-09T08:05:06;100057.34;;;26.28
71428;BMP280;59246;59.102;37.928;2022-07-09T08:07:32;100068.63;;;26.48
71428;BMP280;59246;59.102;37.928;2022-07-09T08:09:57;100062.03;;;26.49
71428;BMP280;59246;59.102;37.928;2022-07-09T08:12:23;100062.00;;;26.60
71428;BMP280;59246;59.102;37.928;2022-07-09T08:14:49;100067.03;;;26.69
71428;BMP280;59246;59.102;37.928;2022-07-09T08:17:14;100056.94;;;26.69
71428;BMP280;59246;59.102;37.928;2022-07-09T08:19:40;100053.78;;;26.89
71428;BMP280;59246;59.102;37.928;2022-07-09T08:22:06;100070.06;;;27.07
71428;BMP280;59246;59.102;37.928;2022-07-09T08:24:31;100056.03;;;27.08
71428;BMP280;59246;59.102;37.928;2022-07-09T08:26:57;100067.38;;;27.03
71428;BMP280;59246;59.102;37.928;2022-07-09T08:29:24;100059.97;;;27.00
71428;BMP280;59246;59.102;37.928;2022-07-09T08:31:50;100069.38;;;26.81
71428;BMP280;59246;59.102;37.928;2022-07-09T08:34:17;100061.59;;;26.72
71428;BMP280;59246;59.102;37.928;2022-07-09T08:36:43;100065.09;;;26.73
71428;BMP280;59246;59.102;37.928;2022-07-09T08:39:10;100071.69;;;26.75
71428;BMP280;59246;59.102;37.928;2022-07-09T08:41:36;100074.81;;;26.74
71428;BMP280;59246;59.102;37.928;2022-07-09T08:44:04;100063.94;;;26.74
71428;BMP280;59246;59.102;37.928;2022-07-09T08:46:33;100062.38;;;26.76
71428;BMP280;59246;59.102;37.928;2022-07-09T08:49:00;100059.28;;;26.67
71428;BMP280;59246;59.102;37.928;2022-07-09T08:51:26;100059.28;;;26.64
71428;BMP280;59246;59.102;37.928;2022-07-09T08:53:54;100047.25;;;26.61
71428;BMP280;59246;59.102;37.928;2022-07-09T08:56:20;100055.78;;;26.56
71428;BMP280;59246;59.102;37.928;2022-07-09T08:58:46;100056.97;;;26.44
71428;BMP280;59246;59.102;37.928;2022-07-09T09:01:13;100058.53;;;26.17
71428;BMP280;59246;59.102;37.928;2022-07-09T09:03:43;100051.50;;;26.05
71428;BMP280;59246;59.102;37.928;2022-07-09T09:06:11;100052.28;;;26.05
71428;BMP280;59246;59.102;37.928;2022-07-09T09:08:38;100052.28;;;26.16
71428;BMP280;59246;59.102;37.928;2022-07-09T09:14:02;100057.72;;;26.02
71428;BMP280;59246;59.102;37.928;2022-07-09T09:16:29;100056.97;;;25.98
71428;BMP280;59246;59.102;37.928;2022-07-09T09:18:55;100046.44;;;25.93
71428;BMP280;59246;59.102;37.928;2022-07-09T09:21:25;100052.28;;;25.95
71428;BMP280;59246;59.102;37.928;2022-07-09T09:23:53;100046.84;;;26.02
71428;BMP280;59246;59.102;37.928;2022-07-09T09:26:20;100053.47;;;26.04
71428;BMP280;59246;59.102;37.928;2022-07-09T09:28:56;100049.16;;;25.78
71428;BMP280;59246;59.102;37.928;2022-07-09T09:31:25;100044.84;;;25.56
71428;BMP280;59246;59.102;37.928;2022-07-09T09:33:56;100036.69;;;25.63
71428;BMP280;59246;59.102;37.928;2022-07-09T09:36:33;100041.72;;;25.64
71428;BMP280;59246;59.102;37.928;2022-07-09T09:39:24;100053.00;;;25.66
71428;BMP280;59246;59.102;37.928;2022-07-09T09:41:52;100051.47;;;25.73
71428;BMP280;59246;59.102;37.928;2022-07-09T09:44:26;100044.50;;;25.82
71428;BMP280;59246;59.102;37.928;2022-07-09T09:46:54;100041.75;;;25.79
71428;BMP280;59246;59.102;37.928;2022-07-09T09:49:21;100047.19;;;25.79
71428;BMP280;59246;59.102;37.928;2022-07-09T09:51:51;100037.50;;;25.81
71428;BMP280;59246;59.102;37.928;2022-07-09T09:54:21;100039.03;;;25.79
71428;BMP280;59246;59.102;37.928;2022-07-09T09:56:50;100040.22;;;25.85
71428;BMP280;59246;59.102;37.928;2022-07-09T09:59:16;100042.19;;;26.09
71428;BMP280;59246;59.102;37.928;2022-07-09T10:01:43;100056.19;;;26.33
71428;BMP280;59246;59.102;37.928;2022-07-09T10:04:12;100041.81;;;26.43
71428;BMP280;59246;59.102;37.928;2022-07-09T10:06:39;100035.91;;;26.70
71428;BMP280;59246;59.102;37.928;2022-07-09T10:09:06;100034.25;;;27.05
71428;BMP280;59246;59.102;37.928;2022-07-09T10:11:47;100037.41;;;26.96
71428;BMP280;59246;59.102;37.928;2022-07-09T10:16:51;100030.31;;;27.20
71428;BMP280;59246;59.102;37.928;2022-07-09T10:19:28;100034.00;;;27.58
71428;BMP280;59246;59.102;37.928;2022-07-09T10:21:58;100024.31;;;28.06
71428;BMP280;59246;59.102;37.928;2022-07-09T10:24:29;100024.25;;;28.54
71428;BMP280;59246;59.102;37.928;2022-07-09T10:27:08;100019.88;;;28.95
71428;BMP280;59246;59.102;37.928;2022-07-09T10:29:36;100018.03;;;29.15
71428;BMP280;59246;59.102;37.928;2022-07-09T10:32:02;100020.94;;;29.32
71428;BMP280;59246;59.102;37.928;2022-07-09T10:34:36;100020.03;;;29.38
71428;BMP280;59246;59.102;37.928;2022-07-09T10:37:04;100014.47;;;29.45
71428;BMP280;59246;59.102;37.928;2022-07-09T10:39:31;100009.75;;;29.73
71428;BMP280;59246;59.102;37.928;2022-07-09T10:42:17;100006.44;;;29.85
71428;BMP280;59246;59.102;37.928;2022-07-09T10:44:44;100008.44;;;30.05
71428;BMP280;59246;59.102;37.928;2022-07-09T10:47:11;100019.34;;;30.28
71428;BMP280;59246;59.102;37.928;2022-07-09T10:49:37;100004.88;;;30.48
71428;BMP280;59246;59.102;37.928;2022-07-09T10:52:04;99992.38;;;30.67
71428;BMP280;59246;59.102;37.928;2022-07-09T10:54:30;99993.91;;;30.68
71428;BMP280;59246;59.102;37.928;2022-07-09T10:56:56;99992.28;;;30.70
71428;BMP280;59246;59.102;37.928;2022-07-09T10:59:23;99988.69;;;30.73
71428;BMP280;59246;59.102;37.928;2022-07-09T11:01:49;99988.75;;;30.90
71428;BMP280;59246;59.102;37.928;2022-07-09T11:04:28;99984.13;;;30.86
71428;BMP280;59246;59.102;37.928;2022-07-09T11:06:54;99975.72;;;30.94
71428;BMP280;59246;59.102;37.928;2022-07-09T11:09:20;99972.00;;;31.37
71428;BMP280;59246;59.102;37.928;2022-07-09T11:11:46;99972.66;;;31.73
71428;BMP280;59246;59.102;37.928;2022-07-09T11:14:13;99966.63;;;32.08
71428;BMP280;59246;59.102;37.928;2022-07-09T11:16:39;99964.25;;;32.22
71428;BMP280;59246;59.102;37.928;2022-07-09T11:19:15;99958.44;;;32.20
71428;BMP280;59246;59.102;37.928;2022-07-09T11:21:41;99970.81;;;32.12
71428;BMP280;59246;59.102;37.928;2022-07-09T11:24:18;99951.47;;;32.03
71428;BMP280;59246;59.102;37.928;2022-07-09T11:26:45;99964.63;;;32.08
71428;BMP280;59246;59.102;37.928;2022-07-09T11:29:11;99965.50;;;32.34
71428;BMP280;59246;59.102;37.928;2022-07-09T11:31:37;99948.38;;;32.56
71428;BMP280;59246;59.102;37.928;2022-07-09T11:34:11;99946.72;;;32.58
71428;BMP280;59246;59.102;37.928;2022-07-09T11:36:57;99949.34;;;32.23
71428;BMP280;59246;59.102;37.928;2022-07-09T11:39:33;99940.09;;;32.30
71428;BMP280;59246;59.102;37.928;2022-07-09T11:42:03;99950.22;;;32.46
71428;BMP280;59246;59.102;37.928;2022-07-09T11:44:31;99941.75;;;32.79
71428;BMP280;59246;59.102;37.928;2022-07-09T11:47:09;99946.25;;;35.66
71428;BMP280;59246;59.102;37.928;2022-07-09T11:49:56;99943.09;;;39.05
71428;BMP280;59246;59.102;37.928;2022-07-09T11:52:29;99943.53;;;41.24
71428;BMP280;59246;59.102;37.928;2022-07-09T11:54:59;99940.63;;;42.96
71428;BMP280;59246;59.102;37.928;2022-07-09T11:57:27;99934.63;;;43.90
71428;BMP280;59246;59.102;37.928;2022-07-09T11:59:55;99940.25;;;43.11
71428;BMP280;59246;59.102;37.928;2022-07-09T12:02:37;99942.44;;;43.97
71428;BMP280;59246;59.102;37.928;2022-07-09T12:05:07;99937.03;;;46.20
71428;BMP280;59246;59.102;37.928;2022-07-09T12:07:34;99937.03;;;46.20
71428;BMP280;59246;59.102;37.928;2022-07-09T12:10:09;99937.41;;;47.80
71428;BMP280;59246;59.102;37.928;2022-07-09T12:12:36;99934.88;;;48.97
71428;BMP280;59246;59.102;37.928;2022-07-09T12:15:03;99927.63;;;49.74
71428;BMP280;59246;59.102;37.928;2022-07-09T12:17:31;99927.47;;;50.22
71428;BMP280;59246;59.102;37.928;2022-07-09T12:19:58;99927.47;;;50.22
71428;BMP280;59246;59.102;37.928;2022-07-09T12:22:24;99930.19;;;49.47
71428;BMP280;59246;59.102;37.928;2022-07-09T12:24:51;99928.47;;;46.26
71428;BMP280;59246;59.102;37.928;2022-07-09T12:27:18;99932.06;;;45.92
71428;BMP280;59246;59.102;37.928;2022-07-09T12:29:45;99937.31;;;45.96
71428;BMP280;59246;59.102;37.928;2022-07-09T12:32:11;99933.63;;;44.95
71428;BMP280;59246;59.102;37.928;2022-07-09T12:34:37;99941.63;;;43.78
71428;BMP280;59246;59.102;37.928;2022-07-09T12:37:03;99932.72;;;43.30
71428;BMP280;59246;59.102;37.928;2022-07-09T12:39:29;99940.25;;;42.75
71428;BMP280;59246;59.102;37.928;2022-07-09T12:41:55;99930.50;;;41.99
71428;BMP280;59246;59.102;37.928;2022-07-09T12:44:20;99941.16;;;41.95
71428;BMP280;59246;59.102;37.928;2022-07-09T12:46:47;99932.81;;;42.48
71428;BMP280;59246;59.102;37.928;2022-07-09T12:49:12;99935.75;;;43.32
71428;BMP280;59246;59.102;37.928;2022-07-09T12:51:38;99935.53;;;43.30
71428;BMP280;59246;59.102;37.928;2022-07-09T12:54:04;99924.56;;;43.32
71428;BMP280;59246;59.102;37.928;2022-07-09T12:56:30;99921.41;;;44.47
71428;BMP280;59246;59.102;37.928;2022-07-09T12:58:55;99927.00;;;45.38
71428;BMP280;59246;59.102;37.928;2022-07-09T13:01:21;99923.28;;;45.96
71428;BMP280;59246;59.102;37.928;2022-07-09T13:03:46;99924.28;;;45.72
71428;BMP280;59246;59.102;37.928;2022-07-09T13:06:12;99928.59;;;44.74
71428;BMP280;59246;59.102;37.928;2022-07-09T13:08:57;99915.16;;;43.60
71428;BMP280;59246;59.102;37.928;2022-07-09T13:11:23;99915.44;;;43.02
71428;BMP280;59246;59.102;37.928;2022-07-09T13:13:49;99923.63;;;43.24
71428;BMP280;59246;59.102;37.928;2022-07-09T13:16:15;99908.19;;;44.29
71428;BMP280;59246;59.102;37.928;2022-07-09T13:18:41;99913.06;;;45.05
71428;BMP280;59246;59.102;37.928;2022-07-09T13:21:07;99904.34;;;45.35
71428;BMP280;59246;59.102;37.928;2022-07-09T13:23:32;99909.50;;;46.19
71428;BMP280;59246;59.102;37.928;2022-07-09T13:25:59;99898.16;;;46.94
71428;BMP280;59246;59.102;37.928;2022-07-09T13:28:25;99898.16;;;46.94
71428;BMP280;59246;59.102;37.928;2022-07-09T13:30:50;99894.09;;;47.39
71428;BMP280;59246;59.102;37.928;2022-07-09T13:33:16;99883.31;;;47.59
71428;BMP280;59246;59.102;37.928;2022-07-09T13:35:44;99883.31;;;47.59
71428;BMP280;59246;59.102;37.928;2022-07-09T13:38:10;99890.72;;;48.00
71428;BMP280;59246;59.102;37.928;2022-07-09T13:40:36;99890.28;;;47.73
71428;BMP280;59246;59.102;37.928;2022-07-09T13:43:02;99877.47;;;46.56
71428;BMP280;59246;59.102;37.928;2022-07-09T13:45:28;99872.19;;;44.97
71428;BMP280;59246;59.102;37.928;2022-07-09T13:47:54;99876.66;;;43.47
71428;BMP280;59246;59.102;37.928;2022-07-09T13:50:20;99873.63;;;42.55